createdAt,value
2018-12-25T00:02:11.841Z,11.95
2018-12-25T00:04:59.964Z,11.18
2018-12-25T00:07:47.979Z,10.20
2018-12-25T00:10:36.083Z,9.98
2018-12-25T00:13:24.128Z,11.35
2018-12-25T00:16:12.341Z,11.68
2018-12-25T00:19:06.132Z,11.40
2018-12-25T00:21:43.401Z,12.88
2018-12-25T00:24:24.086Z,12.43
2018-12-25T00:26:52.996Z,12.13
2018-12-25T00:29:41.085Z,11.90
2018-12-25T00:32:29.083Z,12.23
2018-12-25T00:35:17.164Z,12.07
2018-12-25T00:38:05.266Z,12.47
2018-12-25T00:40:53.252Z,11.10
2018-12-25T00:43:41.268Z,10.25
2018-12-25T00:46:29.257Z,9.60
2018-12-25T00:49:17.586Z,9.68
2018-12-25T00:52:05.606Z,10.10
2018-12-25T00:54:53.654Z,10.28
2018-12-25T00:57:41.903Z,9.23
2018-12-25T01:00:29.937Z,10.10
2018-12-25T01:03:17.981Z,11.35
2018-12-25T01:06:06.302Z,12.40
2018-12-25T01:08:54.343Z,11.50
2018-12-25T01:11:42.564Z,10.77
2018-12-25T01:14:11.401Z,10.28
2018-12-25T01:16:59.424Z,10.88
2018-12-25T01:19:47.469Z,9.80
2018-12-25T01:22:28.007Z,9.83
2018-12-25T01:25:09.070Z,10.65
2018-12-25T01:31:01.626Z,10.00
2018-12-25T01:33:43.014Z,8.93
2018-12-25T01:36:23.574Z,8.90
2018-12-25T01:39:04.254Z,8.40
2018-12-25T01:41:33.081Z,8.75
2018-12-25T01:44:21.208Z,9.50
2018-12-25T01:46:50.392Z,10.00
2018-12-25T01:49:38.395Z,10.35
2018-12-25T01:52:26.494Z,10.15
2018-12-25T01:55:14.480Z,10.53
2018-12-25T01:58:03.106Z,9.30
2018-12-25T02:00:51.144Z,8.93
2018-12-25T02:03:39.283Z,9.00
2018-12-25T02:06:27.317Z,8.75
2018-12-25T02:09:15.620Z,9.00
2018-12-25T02:12:03.731Z,8.43
2018-12-25T02:14:51.742Z,8.68
2018-12-25T02:17:39.762Z,8.70
2018-12-25T02:23:06.593Z,10.85
2018-12-25T02:25:47.496Z,10.15
2018-12-25T02:28:28.157Z,11.60
2018-12-25T02:31:09.103Z,10.88
2018-12-25T02:33:49.893Z,10.53
2018-12-25T02:36:34.084Z,9.13
2018-12-25T02:39:15.935Z,8.63
2018-12-25T02:41:57.293Z,10.78
2018-12-25T02:44:37.855Z,10.45
2018-12-25T02:47:18.988Z,10.57
2018-12-25T02:50:00.114Z,10.23
2018-12-25T02:52:40.850Z,10.50
2018-12-25T02:55:22.044Z,10.75
2018-12-25T02:58:02.954Z,9.65
2018-12-25T03:00:46.302Z,10.25
2018-12-25T03:03:26.487Z,10.43
2018-12-25T03:06:07.581Z,11.25
2018-12-25T03:08:36.901Z,11.10
2018-12-25T03:13:55.740Z,10.58
2018-12-25T03:16:36.732Z,11.97
2018-12-25T03:19:17.740Z,11.05
2018-12-25T03:21:58.540Z,10.70
2018-12-25T03:24:39.435Z,12.63
2018-12-25T03:27:20.178Z,13.18
2018-12-25T03:30:00.898Z,12.93
2018-12-25T03:32:41.957Z,12.65
2018-12-25T03:35:22.761Z,13.10
2018-12-25T03:38:03.820Z,13.18
2018-12-25T03:40:44.708Z,12.73
2018-12-25T03:43:25.396Z,13.62
2018-12-25T03:46:06.058Z,12.73
2018-12-25T03:48:46.976Z,13.10
2018-12-25T03:51:27.939Z,13.50
2018-12-25T03:54:08.641Z,13.30
2018-12-25T03:56:49.366Z,13.13
2018-12-25T03:59:30.101Z,13.35
2018-12-25T04:02:10.930Z,13.78
2018-12-25T04:04:51.740Z,13.03
2018-12-25T04:07:32.793Z,13.30
2018-12-25T04:10:13.568Z,14.00
2018-12-25T04:12:54.517Z,14.03
2018-12-25T04:15:35.025Z,14.25
2018-12-25T04:18:15.814Z,13.93
2018-12-25T04:20:57.077Z,14.38
2018-12-25T04:23:37.682Z,14.65
2018-12-25T04:26:18.108Z,14.40
2018-12-25T04:28:59.086Z,14.10
2018-12-25T04:31:39.923Z,13.28
2018-12-25T04:34:21.032Z,12.00
2018-12-25T04:37:01.580Z,12.60
2018-12-25T04:39:42.689Z,12.30
2018-12-25T04:42:23.461Z,12.10
2018-12-25T04:45:04.009Z,11.57
2018-12-25T04:47:45.000Z,11.10
2018-12-25T04:50:29.392Z,11.15
2018-12-25T04:53:08.527Z,12.23
2018-12-25T04:55:49.364Z,12.18
2018-12-25T04:58:30.264Z,12.28
2018-12-25T05:01:11.097Z,13.15
2018-12-25T05:03:51.728Z,13.08
2018-12-25T05:06:32.341Z,13.18
2018-12-25T05:09:12.968Z,13.40
2018-12-25T05:11:53.648Z,14.33
2018-12-25T05:14:34.733Z,15.15
2018-12-25T05:17:15.547Z,14.93
2018-12-25T05:19:56.745Z,15.47
2018-12-25T05:22:37.579Z,16.15
2018-12-25T05:25:18.750Z,15.90
2018-12-25T05:27:59.548Z,17.42
2018-12-25T05:30:40.373Z,15.80
2018-12-25T05:33:21.267Z,15.30
2018-12-25T05:36:02.060Z,16.05
2018-12-25T05:38:42.740Z,16.73
2018-12-25T05:41:23.788Z,16.77
2018-12-25T05:44:04.570Z,17.17
2018-12-25T05:46:45.195Z,16.20
2018-12-25T05:49:26.295Z,17.15
2018-12-25T05:52:07.155Z,15.83
2018-12-25T05:54:35.964Z,15.65
2018-12-25T05:57:24.268Z,15.15
2018-12-25T06:00:12.617Z,15.15
2018-12-25T06:03:00.684Z,16.57
2018-12-25T06:05:49.029Z,17.15
2018-12-25T06:08:37.385Z,18.15
2018-12-25T06:11:25.910Z,17.02
2018-12-25T06:14:14.550Z,17.23
2018-12-25T06:17:02.836Z,17.05
2018-12-25T06:19:51.181Z,17.23
2018-12-25T06:22:31.836Z,16.20
2018-12-25T06:25:12.794Z,16.05
2018-12-25T06:27:53.718Z,17.57
2018-12-25T06:30:34.387Z,16.48
2018-12-25T06:33:15.476Z,16.62
2018-12-25T06:35:56.100Z,16.77
2018-12-25T06:38:37.084Z,15.93
2018-12-25T06:41:18.036Z,15.80
2018-12-25T06:43:59.373Z,16.42
2018-12-25T06:46:39.789Z,16.57
2018-12-25T06:49:20.244Z,16.30
2018-12-25T06:52:00.820Z,16.52
2018-12-25T06:54:41.672Z,16.45
2018-12-25T06:57:22.439Z,17.40
2018-12-25T07:00:03.158Z,17.37
2018-12-25T07:02:44.084Z,17.52
2018-12-25T07:05:24.768Z,17.48
2018-12-25T07:08:05.251Z,17.17
2018-12-25T07:10:46.364Z,17.25
2018-12-25T07:13:27.077Z,18.05
2018-12-25T07:16:07.536Z,16.62
2018-12-25T07:18:48.417Z,17.60
2018-12-25T07:21:17.590Z,17.37
2018-12-25T07:23:58.143Z,17.25
2018-12-25T07:26:39.417Z,15.93
2018-12-25T07:29:20.095Z,16.93
2018-12-25T07:32:00.729Z,16.62
2018-12-25T07:34:41.742Z,16.27
2018-12-25T07:37:22.134Z,16.80
2018-12-25T07:40:02.838Z,17.30
2018-12-25T07:42:43.405Z,16.52
2018-12-25T07:45:24.650Z,16.23
2018-12-25T07:48:05.885Z,16.30
2018-12-25T07:50:47.014Z,17.13
2018-12-25T07:53:27.677Z,22.65
2018-12-25T07:56:08.689Z,21.70
2018-12-25T07:58:50.145Z,15.83
2018-12-25T08:01:31.199Z,17.10
2018-12-25T08:04:11.782Z,18.42
2018-12-25T08:06:52.196Z,16.82
2018-12-25T08:09:33.267Z,17.57
2018-12-25T08:12:13.968Z,17.37
2018-12-25T08:14:55.244Z,16.97
2018-12-25T08:17:36.560Z,17.52
2018-12-25T08:20:17.984Z,17.15
2018-12-25T08:23:02.616Z,17.10
2018-12-25T08:25:41.031Z,18.32
2018-12-25T08:28:21.907Z,19.17
2018-12-25T08:31:02.683Z,18.02
2018-12-25T08:33:43.289Z,18.12
2018-12-25T08:36:24.146Z,17.37
2018-12-25T08:39:04.857Z,18.25
2018-12-25T08:41:45.327Z,18.32
2018-12-25T08:44:26.298Z,17.30
2018-12-25T08:47:07.119Z,16.33
2018-12-25T08:49:47.864Z,17.35
2018-12-25T08:52:28.520Z,18.73
2018-12-25T08:55:09.230Z,17.90
2018-12-25T08:57:50.013Z,19.30
2018-12-25T09:00:30.801Z,20.10
2018-12-25T09:03:11.174Z,18.82
2018-12-25T09:05:52.006Z,18.17
2018-12-25T09:08:34.891Z,18.62
2018-12-25T09:11:16.175Z,17.90
2018-12-25T09:13:56.594Z,19.63
2018-12-25T09:16:37.505Z,20.60
2018-12-25T09:19:17.811Z,21.33
2018-12-25T09:21:58.637Z,18.62
2018-12-25T09:24:39.337Z,19.02
2018-12-25T09:27:19.991Z,19.95
2018-12-25T09:30:01.315Z,20.52
2018-12-25T09:32:42.286Z,19.35
2018-12-25T09:35:26.047Z,19.65
2018-12-25T09:38:05.991Z,18.07
2018-12-25T09:40:46.700Z,16.95
2018-12-25T09:43:27.508Z,17.40
2018-12-25T09:46:08.296Z,18.48
2018-12-25T09:48:49.252Z,18.12
2018-12-25T09:51:30.099Z,17.20
2018-12-25T09:54:11.287Z,17.40
2018-12-25T09:56:52.787Z,18.05
2018-12-25T09:59:33.876Z,17.47
2018-12-25T10:02:15.059Z,18.27
2018-12-25T10:04:56.688Z,17.95
2018-12-25T10:07:37.792Z,17.85
2018-12-25T10:10:18.443Z,17.80
2018-12-25T10:12:59.510Z,17.60
2018-12-25T10:15:40.732Z,16.87
2018-12-25T10:18:21.564Z,17.73
2018-12-25T10:21:02.609Z,16.60
2018-12-25T10:23:43.336Z,16.27
2018-12-25T10:26:24.248Z,16.77
2018-12-25T10:29:05.116Z,15.53
2018-12-25T10:31:46.228Z,17.20
2018-12-25T10:34:26.634Z,15.88
2018-12-25T10:37:07.793Z,15.40
2018-12-25T10:39:49.150Z,16.35
2018-12-25T10:42:29.649Z,16.10
2018-12-25T10:45:10.309Z,16.33
2018-12-25T10:47:51.289Z,15.40
2018-12-25T10:50:32.312Z,17.00
2018-12-25T10:53:12.843Z,17.50
2018-12-25T10:55:53.876Z,16.15
2018-12-25T10:58:34.392Z,16.52
2018-12-25T11:01:25.204Z,15.80
2018-12-25T11:04:13.576Z,16.27
2018-12-25T11:07:01.720Z,16.73
2018-12-25T11:09:50.161Z,16.25
2018-12-25T11:12:38.519Z,17.00
2018-12-25T11:15:26.727Z,16.67
2018-12-25T11:18:14.731Z,16.25
2018-12-25T11:21:02.707Z,16.50
2018-12-25T11:23:43.743Z,15.45
2018-12-25T11:26:24.756Z,15.68
2018-12-25T11:29:05.655Z,15.50
2018-12-25T11:31:46.984Z,15.25
2018-12-25T11:34:28.272Z,15.38
2018-12-25T11:37:09.002Z,14.97
2018-12-25T11:39:49.801Z,15.00
2018-12-25T11:42:31.044Z,14.87
2018-12-25T11:45:11.643Z,15.32
2018-12-25T11:47:52.340Z,15.23
2018-12-25T11:50:21.581Z,13.75
2018-12-25T11:53:09.589Z,14.80
2018-12-25T11:55:57.731Z,14.73
2018-12-25T11:58:45.719Z,14.95
2018-12-25T12:01:33.695Z,15.38
2018-12-25T12:04:21.947Z,15.23
2018-12-25T12:07:09.931Z,15.10
2018-12-25T12:09:58.015Z,14.60
2018-12-25T12:12:46.250Z,14.58
2018-12-25T12:15:34.623Z,15.10
2018-12-25T12:18:22.616Z,14.83
2018-12-25T12:21:10.660Z,14.20
2018-12-25T12:23:51.762Z,14.47
2018-12-25T12:26:32.423Z,14.65
2018-12-25T12:32:02.244Z,14.03
2018-12-25T12:34:42.670Z,14.50
2018-12-25T12:37:23.340Z,14.98
2018-12-25T12:40:03.883Z,15.38
2018-12-25T12:42:45.193Z,14.28
2018-12-25T12:45:25.797Z,14.73
2018-12-25T12:48:06.876Z,15.28
2018-12-25T12:50:47.486Z,14.93
2018-12-25T12:53:28.243Z,15.10
2018-12-25T12:56:08.935Z,14.65
2018-12-25T12:58:49.806Z,15.68
2018-12-25T13:01:30.523Z,23.50
2018-12-25T13:04:11.655Z,16.77
2018-12-25T13:06:52.682Z,15.58
2018-12-25T13:09:33.132Z,15.30
2018-12-25T13:12:17.011Z,15.50
2018-12-25T13:14:57.695Z,14.18
2018-12-25T13:17:38.496Z,14.65
2018-12-25T13:20:19.316Z,14.85
2018-12-25T13:23:00.224Z,15.00
2018-12-25T13:25:41.014Z,14.90
2018-12-25T13:28:21.578Z,14.68
2018-12-25T13:31:02.444Z,14.98
2018-12-25T13:33:43.477Z,15.80
2018-12-25T13:36:24.947Z,16.12
2018-12-25T13:39:05.911Z,15.88
2018-12-25T13:41:46.755Z,16.57
2018-12-25T13:44:28.180Z,17.10
2018-12-25T13:47:08.860Z,16.33
2018-12-25T13:49:49.255Z,17.10
2018-12-25T13:52:30.117Z,17.45
2018-12-25T13:55:11.022Z,16.62
2018-12-25T13:57:52.144Z,17.07
2018-12-25T14:00:33.203Z,17.23
2018-12-25T14:03:13.859Z,16.93
2018-12-25T14:05:54.617Z,16.82
2018-12-25T14:08:35.615Z,17.73
2018-12-25T14:11:16.086Z,17.65
2018-12-25T14:13:57.016Z,17.82
2018-12-25T14:16:37.939Z,18.07
2018-12-25T14:19:18.198Z,17.92
2018-12-25T14:21:58.893Z,17.12
2018-12-25T14:24:39.795Z,17.77
2018-12-25T14:27:20.831Z,17.50
2018-12-25T14:30:01.423Z,17.45
2018-12-25T14:32:42.195Z,17.40
2018-12-25T14:35:22.811Z,17.62
2018-12-25T14:38:03.521Z,18.70
2018-12-25T14:40:44.119Z,18.65
2018-12-25T14:43:25.383Z,17.92
2018-12-25T14:46:05.849Z,18.70
2018-12-25T14:48:46.808Z,18.73
2018-12-25T14:51:27.563Z,19.02
2018-12-25T14:54:07.947Z,19.00
2018-12-25T14:56:48.628Z,19.35
2018-12-25T14:59:17.527Z,18.87
2018-12-25T15:01:46.298Z,19.07
2018-12-25T15:04:34.525Z,18.05
2018-12-25T15:07:22.878Z,18.37
2018-12-25T15:10:11.110Z,20.00
2018-12-25T15:12:59.407Z,19.33
2018-12-25T15:15:47.405Z,19.00
2018-12-25T15:18:35.475Z,19.75
2018-12-25T15:21:23.581Z,20.70
2018-12-25T15:24:04.718Z,20.70
2018-12-25T15:26:45.525Z,22.05
2018-12-25T15:29:26.243Z,27.62
2018-12-25T15:32:06.745Z,23.27
2018-12-25T15:34:47.468Z,23.10
2018-12-25T15:37:27.925Z,24.45
2018-12-25T15:40:08.467Z,25.45
2018-12-25T15:42:48.897Z,25.50
2018-12-25T15:45:29.824Z,25.43
2018-12-25T15:47:58.725Z,26.17
2018-12-25T15:50:46.800Z,26.55
2018-12-25T15:53:37.044Z,25.52
2018-12-25T15:56:24.597Z,26.57
2018-12-25T15:59:12.912Z,26.17
2018-12-25T16:02:00.903Z,26.97
2018-12-25T16:04:48.940Z,26.45
2018-12-25T16:07:37.271Z,28.55
2018-12-25T16:10:25.267Z,27.70
2018-12-25T16:13:13.347Z,27.65
2018-12-25T16:16:01.396Z,26.80
2018-12-25T16:18:49.472Z,27.22
2018-12-25T16:21:37.760Z,26.73
2018-12-25T16:24:18.689Z,27.48
2018-12-25T16:26:59.446Z,28.95
2018-12-25T16:29:40.373Z,32.83
2018-12-25T16:32:21.780Z,31.07
2018-12-25T16:35:02.360Z,30.60
2018-12-25T16:37:42.967Z,30.52
2018-12-25T16:40:23.527Z,30.62
2018-12-25T16:43:04.125Z,28.23
2018-12-25T16:45:45.084Z,27.10
2018-12-25T16:48:14.007Z,27.05
2018-12-25T16:51:02.333Z,27.35
2018-12-25T16:53:31.140Z,27.77
2018-12-25T16:56:00.597Z,27.73
2018-12-25T16:58:48.865Z,26.87
2018-12-25T17:01:37.313Z,27.00
2018-12-25T17:04:25.632Z,27.30
2018-12-25T17:07:13.659Z,28.63
2018-12-25T17:10:01.935Z,29.77
2018-12-25T17:12:30.712Z,31.27
2018-12-25T17:15:18.859Z,32.10
2018-12-25T17:18:06.879Z,27.22
2018-12-25T17:20:55.280Z,27.27
2018-12-25T17:23:43.315Z,27.10
2018-12-25T17:26:12.123Z,26.50
2018-12-25T17:29:00.177Z,27.82
2018-12-25T17:31:48.242Z,28.47
2018-12-25T17:34:36.258Z,28.03
2018-12-25T17:37:24.252Z,26.37
2018-12-25T17:40:12.482Z,27.05
2018-12-25T17:43:00.575Z,27.27
2018-12-25T17:45:48.634Z,26.40
2018-12-25T17:48:36.657Z,25.70
2018-12-25T17:51:24.943Z,26.60
2018-12-25T17:54:13.344Z,26.35
2018-12-25T17:57:01.363Z,25.68
2018-12-25T17:59:49.440Z,26.17
2018-12-25T18:02:37.446Z,25.30
2018-12-25T18:05:25.437Z,25.65
2018-12-25T18:08:13.466Z,24.85
2018-12-25T18:11:01.472Z,24.40
2018-12-25T18:13:49.532Z,25.57
2018-12-25T18:16:37.822Z,26.17
2018-12-25T18:19:25.843Z,30.80
2018-12-25T18:22:13.881Z,32.08
2018-12-25T18:24:54.266Z,32.13
2018-12-25T18:27:35.104Z,31.95
2018-12-25T18:30:15.961Z,32.60
2018-12-25T18:32:57.360Z,32.23
2018-12-25T18:35:38.659Z,33.20
2018-12-25T18:38:19.647Z,32.03
2018-12-25T18:41:00.763Z,33.05
2018-12-25T18:43:41.418Z,30.12
2018-12-25T18:46:22.014Z,31.07
2018-12-25T18:49:02.868Z,30.08
2018-12-25T18:51:43.909Z,30.08
2018-12-25T18:54:27.972Z,31.27
2018-12-25T18:57:07.856Z,33.18
2018-12-25T18:59:48.756Z,31.05
2018-12-25T19:02:29.448Z,30.27
2018-12-25T19:05:10.218Z,29.87
2018-12-25T19:07:51.491Z,30.57
2018-12-25T19:10:32.523Z,30.90
2018-12-25T19:13:13.346Z,31.00
2018-12-25T19:15:54.321Z,29.83
2018-12-25T19:18:34.708Z,30.62
2018-12-25T19:21:15.441Z,29.63
2018-12-25T19:23:56.552Z,33.08
2018-12-25T19:26:37.383Z,29.15
2018-12-25T19:29:17.860Z,27.67
2018-12-25T19:31:58.905Z,26.95
2018-12-25T19:34:39.628Z,27.27
2018-12-25T19:37:21.125Z,27.82
2018-12-25T19:40:02.118Z,26.82
2018-12-25T19:42:43.416Z,27.13
2018-12-25T19:45:24.321Z,25.70
2018-12-25T19:48:04.908Z,26.50
2018-12-25T19:50:45.571Z,26.50
2018-12-25T19:53:14.722Z,24.52
2018-12-25T19:55:43.974Z,25.80
2018-12-25T19:58:32.168Z,25.35
2018-12-25T20:01:20.412Z,25.02
2018-12-25T20:04:27.639Z,25.72
2018-12-25T20:07:34.836Z,28.62
2018-12-25T20:10:42.084Z,28.50
2018-12-25T20:13:49.440Z,27.37
2018-12-25T20:16:56.660Z,23.92
2018-12-25T20:20:03.915Z,24.50
2018-12-25T20:23:11.123Z,24.25
2018-12-25T20:25:51.783Z,24.75
2018-12-25T20:28:32.522Z,25.15
2018-12-25T20:31:13.119Z,25.10
2018-12-25T20:33:53.417Z,24.50
2018-12-25T20:36:33.994Z,26.73
2018-12-25T20:39:14.987Z,26.73
2018-12-25T20:41:55.660Z,26.05
2018-12-25T20:44:36.295Z,27.22
2018-12-25T20:47:17.562Z,28.80
2018-12-25T20:49:58.404Z,26.95
2018-12-25T20:52:38.947Z,27.27
2018-12-25T20:55:19.817Z,26.37
2018-12-25T20:58:00.437Z,27.45
2018-12-25T21:00:41.088Z,28.27
2018-12-25T21:03:21.723Z,30.43
2018-12-25T21:06:02.784Z,30.70
2018-12-25T21:08:43.462Z,29.87
2018-12-25T21:11:24.321Z,31.07
2018-12-25T21:14:05.180Z,32.48
2018-12-25T21:16:46.337Z,31.55
2018-12-25T21:19:28.303Z,33.60
2018-12-25T21:22:29.136Z,34.38
2018-12-25T21:25:10.325Z,33.18
2018-12-25T21:27:51.203Z,33.08
2018-12-25T21:30:32.313Z,32.98
2018-12-25T21:33:13.644Z,31.07
2018-12-25T21:35:54.204Z,29.95
2018-12-25T21:38:34.883Z,29.98
2018-12-25T21:41:16.056Z,30.17
2018-12-25T21:43:56.736Z,32.88
2018-12-25T21:46:37.584Z,30.67
2018-12-25T21:49:18.269Z,29.93
2018-12-25T21:51:59.241Z,29.55
2018-12-25T21:54:39.939Z,31.03
2018-12-25T21:57:20.947Z,30.00
2018-12-25T22:00:01.836Z,30.90
2018-12-25T22:02:31.012Z,33.05
2018-12-25T22:08:34.085Z,31.20
2018-12-25T22:11:22.166Z,30.00
2018-12-25T22:14:10.500Z,28.20
2018-12-25T22:16:58.636Z,28.60
2018-12-25T22:19:46.676Z,29.02
2018-12-25T22:22:35.010Z,29.15
2018-12-25T22:25:15.550Z,28.95
2018-12-25T22:27:56.298Z,29.17
2018-12-25T22:30:37.149Z,30.23
2018-12-25T22:33:18.103Z,30.03
2018-12-25T22:35:59.208Z,30.05
2018-12-25T22:38:39.915Z,27.73
2018-12-25T22:41:20.457Z,30.80
2018-12-25T22:44:01.473Z,29.92
2018-12-25T22:46:42.254Z,30.82
2018-12-25T22:49:23.057Z,31.73
2018-12-25T22:52:04.222Z,30.90
2018-12-25T22:54:44.883Z,31.07
2018-12-25T22:57:25.882Z,32.33
2018-12-25T23:00:07.099Z,33.17
2018-12-25T23:02:47.764Z,33.65
2018-12-25T23:05:28.593Z,32.30
2018-12-25T23:08:09.360Z,32.67
2018-12-25T23:10:50.250Z,29.77
2018-12-25T23:13:31.511Z,31.00
2018-12-25T23:16:12.245Z,31.45
2018-12-25T23:21:44.203Z,31.45
2018-12-25T23:24:25.494Z,29.85
2018-12-25T23:27:06.349Z,30.68
2018-12-25T23:29:46.992Z,31.05
2018-12-25T23:32:27.582Z,30.30
2018-12-25T23:35:08.534Z,29.98
2018-12-25T23:37:49.110Z,29.67
2018-12-25T23:40:30.625Z,30.72
2018-12-25T23:43:11.002Z,31.60
2018-12-25T23:45:51.500Z,31.95
2018-12-25T23:48:32.292Z,33.20
2018-12-25T23:51:13.057Z,31.33
2018-12-25T23:53:54.256Z,31.37
2018-12-25T23:56:34.853Z,32.83
2018-12-25T23:59:16.063Z,31.20
